sensor_id;sensor_type;location;lat;lon;timestamp;pressure;altitude;pressure_sealevel;temperature;humidity
32733;BME280;11867;51.198;11.966;2023-10-08T00:00:15;100713.31;;;19.43;81.41
32733;BME280;11867;51.198;11.966;2023-10-08T00:01:52;100710.91;;;19.32;81.66
32733;BME280;11867;51.198;11.966;2023-10-08T00:03:17;100716.94;;;19.26;82.14
32733;BME280;11867;51.198;11.966;2023-10-08T00:04:40;100708.53;;;19.13;82.60
32733;BME280;11867;51.198;11.966;2023-10-08T00:06:06;100714.84;;;19.14;82.39
32733;BME280;11867;51.198;11.966;2023-10-08T00:07:28;100699.97;;;18.98;83.03
32733;BME280;11867;51.198;11.966;2023-10-08T00:08:51;100706.59;;;19.05;83.05
32733;BME280;11867;51.198;11.966;2023-10-08T00:10:13;100705.91;;;19.17;82.42
32733;BME280;11867;51.198;11.966;2023-10-08T00:11:39;100701.03;;;19.23;82.01
32733;BME280;11867;51.198;11.966;2023-10-08T00:13:02;100715.06;;;19.09;82.58
32733;BME280;11867;51.198;11.966;2023-10-08T00:14:25;100709.22;;;18.93;83.09
32733;BME280;11867;51.198;11.966;2023-10-08T00:15:47;100709.91;;;18.90;83.48
32733;BME280;11867;51.198;11.966;2023-10-08T00:17:15;100703.22;;;18.91;83.57
32733;BME280;11867;51.198;11.966;2023-10-08T00:18:38;100696.72;;;18.87;83.61
32733;BME280;11867;51.198;11.966;2023-10-08T00:20:04;100691.88;;;18.84;83.53
32733;BME280;11867;51.198;11.966;2023-10-08T00:21:26;100690.06;;;18.88;83.58
32733;BME280;11867;51.198;11.966;2023-10-08T00:22:50;100691.19;;;18.95;83.19
32733;BME280;11867;51.198;11.966;2023-10-08T00:24:12;100692.81;;;18.97;83.29
32733;BME280;11867;51.198;11.966;2023-10-08T00:25:35;100692.00;;;18.96;83.15
32733;BME280;11867;51.198;11.966;2023-10-08T00:27:03;100692.19;;;18.82;83.88
32733;BME280;11867;51.198;11.966;2023-10-08T00:28:28;100696.38;;;18.97;83.23
32733;BME280;11867;51.198;11.966;2023-10-08T00:29:50;100688.56;;;18.99;83.57
32733;BME280;11867;51.198;11.966;2023-10-08T00:31:14;100690.03;;;19.05;82.98
32733;BME280;11867;51.198;11.966;2023-10-08T00:32:39;100694.75;;;19.05;83.10
32733;BME280;11867;51.198;11.966;2023-10-08T00:34:02;100698.81;;;18.99;83.38
32733;BME280;11867;51.198;11.966;2023-10-08T00:35:26;100680.97;;;18.70;84.46
32733;BME280;11867;51.198;11.966;2023-10-08T00:36:50;100686.97;;;18.81;84.18
32733;BME280;11867;51.198;11.966;2023-10-08T00:38:13;100690.38;;;18.95;83.26
32733;BME280;11867;51.198;11.966;2023-10-08T00:39:38;100687.56;;;19.12;82.79
32733;BME280;11867;51.198;11.966;2023-10-08T00:41:01;100689.88;;;18.93;83.56
32733;BME280;11867;51.198;11.966;2023-10-08T00:42:26;100689.72;;;18.98;83.31
32733;BME280;11867;51.198;11.966;2023-10-08T00:43:50;100691.03;;;18.92;83.74
32733;BME280;11867;51.198;11.966;2023-10-08T00:45:15;100685.50;;;19.01;83.00
32733;BME280;11867;51.198;11.966;2023-10-08T00:46:39;100682.53;;;19.06;83.13
32733;BME280;11867;51.198;11.966;2023-10-08T00:48:10;100683.31;;;19.15;82.79
32733;BME280;11867;51.198;11.966;2023-10-08T00:49:38;100688.06;;;19.06;83.24
32733;BME280;11867;51.198;11.966;2023-10-08T00:51:16;100687.91;;;19.11;82.61
32733;BME280;11867;51.198;11.966;2023-10-08T00:52:48;100683.50;;;19.10;82.83
32733;BME280;11867;51.198;11.966;2023-10-08T00:54:21;100680.59;;;19.06;83.06
32733;BME280;11867;51.198;11.966;2023-10-08T00:55:47;100686.44;;;19.05;83.67
32733;BME280;11867;51.198;11.966;2023-10-08T00:57:16;100685.97;;;19.03;84.19
32733;BME280;11867;51.198;11.966;2023-10-08T00:58:43;100683.38;;;19.06;84.02
32733;BME280;11867;51.198;11.966;2023-10-08T01:00:09;100685.28;;;19.14;84.14
32733;BME280;11867;51.198;11.966;2023-10-08T01:01:39;100686.56;;;19.17;83.75
32733;BME280;11867;51.198;11.966;2023-10-08T01:03:02;100682.38;;;19.11;84.54
32733;BME280;11867;51.198;11.966;2023-10-08T01:04:33;100683.16;;;19.11;85.73
32733;BME280;11867;51.198;11.966;2023-10-08T01:05:56;100694.41;;;19.06;86.08
32733;BME280;11867;51.198;11.966;2023-10-08T01:07:20;100689.25;;;18.96;86.90
32733;BME280;11867;51.198;11.966;2023-10-08T01:08:44;100681.41;;;19.07;87.68
32733;BME280;11867;51.198;11.966;2023-10-08T01:10:09;100689.03;;;19.10;87.53
32733;BME280;11867;51.198;11.966;2023-10-08T01:11:32;100689.88;;;18.93;88.95
32733;BME280;11867;51.198;11.966;2023-10-08T01:13:01;100690.22;;;18.83;89.17
32733;BME280;11867;51.198;11.966;2023-10-08T01:14:28;100707.78;;;18.69;89.12
32733;BME280;11867;51.198;11.966;2023-10-08T01:15:55;100704.50;;;18.76;89.44
32733;BME280;11867;51.198;11.966;2023-10-08T01:17:17;100711.50;;;18.73;89.05
32733;BME280;11867;51.198;11.966;2023-10-08T01:18:41;100716.38;;;18.68;90.09
32733;BME280;11867;51.198;11.966;2023-10-08T01:20:08;100712.31;;;18.83;89.27
32733;BME280;11867;51.198;11.966;2023-10-08T01:21:43;100698.34;;;18.97;88.60
32733;BME280;11867;51.198;11.966;2023-10-08T01:23:09;100695.91;;;18.78;88.68
32733;BME280;11867;51.198;11.966;2023-10-08T01:24:36;100693.97;;;18.69;89.80
32733;BME280;11867;51.198;11.966;2023-10-08T01:25:58;100685.50;;;18.74;89.83
32733;BME280;11867;51.198;11.966;2023-10-08T01:27:32;100681.28;;;18.68;89.70
32733;BME280;11867;51.198;11.966;2023-10-08T01:28:56;100683.06;;;18.64;89.42
32733;BME280;11867;51.198;11.966;2023-10-08T01:30:24;100701.78;;;18.67;90.03
32733;BME280;11867;51.198;11.966;2023-10-08T01:31:46;100692.34;;;18.68;90.43
32733;BME280;11867;51.198;11.966;2023-10-08T01:33:10;100692.34;;;18.68;90.31
32733;BME280;11867;51.198;11.966;2023-10-08T01:34:33;100697.38;;;18.84;89.56
32733;BME280;11867;51.198;11.966;2023-10-08T01:35:58;100707.94;;;18.73;90.01
32733;BME280;11867;51.198;11.966;2023-10-08T01:37:24;100705.34;;;18.68;90.78
32733;BME280;11867;51.198;11.966;2023-10-08T01:38:48;100706.13;;;18.68;91.29
32733;BME280;11867;51.198;11.966;2023-10-08T01:40:11;100713.97;;;18.49;93.14
32733;BME280;11867;51.198;11.966;2023-10-08T01:41:34;100711.34;;;18.61;92.74
32733;BME280;11867;51.198;11.966;2023-10-08T01:43:02;100713.78;;;18.45;93.11
32733;BME280;11867;51.198;11.966;2023-10-08T01:44:27;100706.47;;;18.49;94.17
32733;BME280;11867;51.198;11.966;2023-10-08T01:45:51;100705.53;;;18.63;93.32
32733;BME280;11867;51.198;11.966;2023-10-08T01:47:14;100710.06;;;18.67;93.12
32733;BME280;11867;51.198;11.966;2023-10-08T01:48:38;100700.31;;;18.52;92.70
32733;BME280;11867;51.198;11.966;2023-10-08T01:50:01;100709.25;;;18.41;93.82
32733;BME280;11867;51.198;11.966;2023-10-08T01:51:27;100705.69;;;18.40;94.15
32733;BME280;11867;51.198;11.966;2023-10-08T01:52:59;100715.44;;;18.38;94.57
32733;BME280;11867;51.198;11.966;2023-10-08T01:54:24;100722.06;;;18.45;94.16
32733;BME280;11867;51.198;11.966;2023-10-08T01:55:48;100719.16;;;18.50;94.26
32733;BME280;11867;51.198;11.966;2023-10-08T01:57:16;100724.03;;;18.36;94.64
32733;BME280;11867;51.198;11.966;2023-10-08T01:58:39;100726.00;;;18.35;95.08
32733;BME280;11867;51.198;11.966;2023-10-08T02:00:02;100733.28;;;18.31;94.94
32733;BME280;11867;51.198;11.966;2023-10-08T02:01:28;100748.38;;;18.34;94.88
32733;BME280;11867;51.198;11.966;2023-10-08T02:02:52;100772.91;;;18.44;94.69
32733;BME280;11867;51.198;11.966;2023-10-08T02:04:15;100791.25;;;18.31;96.74
32733;BME280;11867;51.198;11.966;2023-10-08T02:05:39;100787.25;;;17.98;98.59
32733;BME280;11867;51.198;11.966;2023-10-08T02:07:04;100790.22;;;17.70;100.00
32733;BME280;11867;51.198;11.966;2023-10-08T02:08:29;100789.16;;;17.26;100.00
32733;BME280;11867;51.198;11.966;2023-10-08T02:09:55;100818.59;;;17.17;100.00
32733;BME280;11867;51.198;11.966;2023-10-08T02:11:19;100827.81;;;16.75;100.00
32733;BME280;11867;51.198;11.966;2023-10-08T02:12:42;100820.44;;;16.48;100.00
32733;BME280;11867;51.198;11.966;2023-10-08T02:14:05;100832.38;;;16.30;100.00
32733;BME280;11867;51.198;11.966;2023-10-08T02:15:27;100829.03;;;16.19;100.00
32733;BME280;11867;51.198;11.966;2023-10-08T02:16:50;100840.84;;;16.06;100.00
32733;BME280;11867;51.198;11.966;2023-10-08T02:18:18;100848.06;;;15.88;100.00
32733;BME280;11867;51.198;11.966;2023-10-08T02:19:42;100845.09;;;15.84;100.00
32733;BME280;11867;51.198;11.966;2023-10-08T02:21:04;100836.03;;;15.98;100.00
32733;BME280;11867;51.198;11.966;2023-10-08T02:22:27;100845.41;;;15.83;100.00
32733;BME280;11867;51.198;11.966;2023-10-08T02:23:49;100845.63;;;15.86;100.00
32733;BME280;11867;51.198;11.966;2023-10-08T02:25:13;100851.19;;;15.81;100.00
32733;BME280;11867;51.198;11.966;2023-10-08T02:26:35;100864.63;;;15.69;100.00
32733;BME280;11867;51.198;11.966;2023-10-08T02:27:58;100869.59;;;15.67;100.00
32733;BME280;11867;51.198;11.966;2023-10-08T02:29:26;100887.19;;;15.66;100.00
32733;BME280;11867;51.198;11.966;2023-10-08T02:30:49;100894.00;;;15.68;100.00
32733;BME280;11867;51.198;11.966;2023-10-08T02:32:13;100905.16;;;15.25;100.00
32733;BME280;11867;51.198;11.966;2023-10-08T02:33:35;100902.97;;;14.65;100.00
32733;BME280;11867;51.198;11.966;2023-10-08T02:35:00;100915.59;;;14.42;100.00
32733;BME280;11867;51.198;11.966;2023-10-08T02:36:23;100916.81;;;14.31;100.00
32733;BME280;11867;51.198;11.966;2023-10-08T02:37:45;100909.81;;;14.44;100.00
32733;BME280;11867;51.198;11.966;2023-10-08T02:39:09;100917.13;;;14.53;100.00
32733;BME280;11867;51.198;11.966;2023-10-08T02:40:44;100919.00;;;14.53;100.00
32733;BME280;11867;51.198;11.966;2023-10-08T02:42:08;100916.78;;;14.55;100.00
32733;BME280;11867;51.198;11.966;2023-10-08T02:43:32;100916.88;;;14.74;100.00
32733;BME280;11867;51.198;11.966;2023-10-08T02:44:58;100922.72;;;14.67;100.00
32733;BME280;11867;51.198;11.966;2023-10-08T02:46:22;100935.44;;;14.34;100.00
32733;BME280;11867;51.198;11.966;2023-10-08T02:47:48;100941.75;;;14.35;100.00
32733;BME280;11867;51.198;11.966;2023-10-08T02:49:11;100938.63;;;14.17;100.00
32733;BME280;11867;51.198;11.966;2023-10-08T02:50:36;100931.31;;;14.07;100.00
32733;BME280;11867;51.198;11.966;2023-10-08T02:51:59;100937.00;;;14.16;100.00
32733;BME280;11867;51.198;11.966;2023-10-08T02:53:22;100948.78;;;14.17;100.00
32733;BME280;11867;51.198;11.966;2023-10-08T02:54:47;100963.19;;;14.32;100.00
32733;BME280;11867;51.198;11.966;2023-10-08T02:56:15;100970.41;;;14.47;100.00
32733;BME280;11867;51.198;11.966;2023-10-08T02:57:37;100974.47;;;14.26;100.00
32733;BME280;11867;51.198;11.966;2023-10-08T02:59:05;100963.22;;;14.27;100.00
32733;BME280;11867;51.198;11.966;2023-10-08T03:00:31;100959.59;;;14.32;100.00
32733;BME280;11867;51.198;11.966;2023-10-08T03:01:56;100975.47;;;14.35;100.00
32733;BME280;11867;51.198;11.966;2023-10-08T03:03:19;100965.06;;;14.32;100.00
32733;BME280;11867;51.198;11.966;2023-10-08T03:04:42;100959.41;;;14.23;100.00
32733;BME280;11867;51.198;11.966;2023-10-08T03:06:07;100953.06;;;14.28;100.00
32733;BME280;11867;51.198;11.966;2023-10-08T03:07:33;100957.38;;;14.34;100.00
32733;BME280;11867;51.198;11.966;2023-10-08T03:08:57;100962.34;;;14.32;100.00
32733;BME280;11867;51.198;11.966;2023-10-08T03:10:25;100981.16;;;14.44;100.00
32733;BME280;11867;51.198;11.966;2023-10-08T03:11:55;100975.75;;;14.33;100.00
32733;BME280;11867;51.198;11.966;2023-10-08T03:13:20;100979.00;;;14.41;100.00
32733;BME280;11867;51.198;11.966;2023-10-08T03:14:43;100994.75;;;14.54;100.00
32733;BME280;11867;51.198;11.966;2023-10-08T03:16:12;100992.75;;;14.65;100.00
32733;BME280;11867;51.198;11.966;2023-10-08T03:17:38;100991.06;;;14.40;100.00
32733;BME280;11867;51.198;11.966;2023-10-08T03:19:01;100985.69;;;14.29;100.00
32733;BME280;11867;51.198;11.966;2023-10-08T03:20:27;100997.69;;;14.39;100.00
32733;BME280;11867;51.198;11.966;2023-10-08T03:21:51;101006.00;;;14.58;100.00
32733;BME280;11867;51.198;11.966;2023-10-08T03:23:18;101006.13;;;14.42;100.00
32733;BME280;11867;51.198;11.966;2023-10-08T03:24:47;100999.47;;;14.48;100.00
32733;BME280;11867;51.198;11.966;2023-10-08T03:26:10;101003.09;;;14.44;100.00
32733;BME280;11867;51.198;11.966;2023-10-08T03:27:34;101008.69;;;14.33;100.00
32733;BME280;11867;51.198;11.966;2023-10-08T03:29:04;101016.13;;;14.28;100.00
32733;BME280;11867;51.198;11.966;2023-10-08T03:30:32;101026.53;;;14.31;100.00
32733;BME280;11867;51.198;11.966;2023-10-08T03:32:02;101024.78;;;14.16;100.00
32733;BME280;11867;51.198;11.966;2023-10-08T03:33:28;101015.84;;;14.29;100.00
32733;BME280;11867;51.198;11.966;2023-10-08T03:34:51;101011.25;;;14.25;100.00
32733;BME280;11867;51.198;11.966;2023-10-08T03:36:16;100990.34;;;14.29;100.00
32733;BME280;11867;51.198;11.966;2023-10-08T03:37:44;100996.94;;;14.57;100.00
32733;BME280;11867;51.198;11.966;2023-10-08T03:39:12;101003.63;;;14.46;100.00
32733;BME280;11867;51.198;11.966;2023-10-08T03:40:35;101003.72;;;14.65;100.00
32733;BME280;11867;51.198;11.966;2023-10-08T03:42:04;100996.25;;;14.70;100.00
32733;BME280;11867;51.198;11.966;2023-10-08T03:43:30;100992.56;;;14.80;100.00
32733;BME280;11867;51.198;11.966;2023-10-08T03:44:56;100997.53;;;14.78;100.00
32733;BME280;11867;51.198;11.966;2023-10-08T03:46:30;101012.22;;;14.63;100.00
32733;BME280;11867;51.198;11.966;2023-10-08T03:47:54;101022.66;;;14.66;100.00
32733;BME280;11867;51.198;11.966;2023-10-08T03:49:27;101029.28;;;14.60;100.00
32733;BME280;11867;51.198;11.966;2023-10-08T03:50:53;101029.28;;;14.60;100.00
32733;BME280;11867;51.198;11.966;2023-10-08T03:52:28;101029.38;;;14.50;100.00
32733;BME280;11867;51.198;11.966;2023-10-08T03:53:52;101024.50;;;14.42;100.00
32733;BME280;11867;51.198;11.966;2023-10-08T03:55:28;101021.19;;;14.45;100.00
32733;BME280;11867;51.198;11.966;2023-10-08T03:56:57;101022.94;;;14.65;100.00
32733;BME280;11867;51.198;11.966;2023-10-08T03:58:21;101015.31;;;14.57;100.00
32733;BME280;11867;51.198;11.966;2023-10-08T03:59:52;101007.16;;;14.22;100.00
32733;BME280;11867;51.198;11.966;2023-10-08T04:01:21;101004.94;;;14.24;100.00
32733;BME280;11867;51.198;11.966;2023-10-08T04:02:46;101000.03;;;14.21;100.00
32733;BME280;11867;51.198;11.966;2023-10-08T04:04:16;100998.41;;;14.20;100.00
32733;BME280;11867;51.198;11.966;2023-10-08T04:05:42;100997.56;;;14.20;100.00
32733;BME280;11867;51.198;11.966;2023-10-08T04:07:22;100994.41;;;14.37;100.00
32733;BME280;11867;51.198;11.966;2023-10-08T04:08:50;100984.53;;;14.36;100.00
32733;BME280;11867;51.198;11.966;2023-10-08T04:10:22;100983.53;;;14.56;100.00
32733;BME280;11867;51.198;11.966;2023-10-08T04:12:17;101000.84;;;14.75;100.00
32733;BME280;11867;51.198;11.966;2023-10-08T04:13:43;101014.16;;;14.63;100.00
32733;BME280;11867;51.198;11.966;2023-10-08T04:15:12;101008.00;;;14.76;100.00
32733;BME280;11867;51.198;11.966;2023-10-08T04:16:36;101020.59;;;14.77;100.00
32733;BME280;11867;51.198;11.966;2023-10-08T04:18:00;101030.56;;;14.92;100.00
32733;BME280;11867;51.198;11.966;2023-10-08T04:19:24;101034.16;;;14.92;99.81
32733;BME280;11867;51.198;11.966;2023-10-08T04:20:51;101028.00;;;15.01;98.54
32733;BME280;11867;51.198;11.966;2023-10-08T04:22:26;101033.59;;;15.14;98.02
32733;BME280;11867;51.198;11.966;2023-10-08T04:23:51;101044.78;;;14.99;98.35
32733;BME280;11867;51.198;11.966;2023-10-08T04:25:13;101040.16;;;14.70;99.78
32733;BME280;11867;51.198;11.966;2023-10-08T04:26:37;101033.38;;;14.63;100.00
32733;BME280;11867;51.198;11.966;2023-10-08T04:28:02;101041.34;;;14.88;100.00
32733;BME280;11867;51.198;11.966;2023-10-08T04:29:25;101029.72;;;14.97;99.18
32733;BME280;11867;51.198;11.966;2023-10-08T04:30:49;101029.50;;;15.12;98.33
32733;BME280;11867;51.198;11.966;2023-10-08T04:32:16;101038.16;;;15.00;99.35
32733;BME280;11867;51.198;11.966;2023-10-08T04:33:47;101023.47;;;14.91;99.46
32733;BME280;11867;51.198;11.966;2023-10-08T04:35:10;101003.34;;;14.71;100.00
32733;BME280;11867;51.198;11.966;2023-10-08T04:36:36;101021.41;;;14.78;99.83
32733;BME280;11867;51.198;11.966;2023-10-08T04:38:02;101028.06;;;14.96;98.88
32733;BME280;11867;51.198;11.966;2023-10-08T04:39:25;101028.13;;;14.90;99.03
32733;BME280;11867;51.198;11.966;2023-10-08T04:40:54;101025.19;;;14.82;99.50
32733;BME280;11867;51.198;11.966;2023-10-08T04:42:16;101031.44;;;15.11;98.58
32733;BME280;11867;51.198;11.966;2023-10-08T04:43:48;101034.06;;;14.73;100.00
32733;BME280;11867;51.198;11.966;2023-10-08T04:45:11;101043.38;;;14.78;99.86
32733;BME280;11867;51.198;11.966;2023-10-08T04:46:36;101055.88;;;14.89;99.60
32733;BME280;11867;51.198;11.966;2023-10-08T04:48:09;101064.13;;;14.89;99.51
32733;BME280;11867;51.198;11.966;2023-10-08T04:49:33;101073.75;;;14.86;99.71
32733;BME280;11867;51.198;11.966;2023-10-08T04:50:56;101082.31;;;14.50;100.00
32733;BME280;11867;51.198;11.966;2023-10-08T04:52:23;101072.56;;;14.39;100.00
32733;BME280;11867;51.198;11.966;2023-10-08T04:53:47;101078.22;;;14.19;100.00
32733;BME280;11867;51.198;11.966;2023-10-08T04:55:10;101075.44;;;13.89;100.00
32733;BME280;11867;51.198;11.966;2023-10-08T04:56:37;101095.69;;;13.88;100.00
32733;BME280;11867;51.198;11.966;2023-10-08T04:58:01;101105.56;;;13.89;100.00
32733;BME280;11867;51.198;11.966;2023-10-08T04:59:34;101096.84;;;13.82;100.00
32733;BME280;11867;51.198;11.966;2023-10-08T05:00:56;101101.44;;;13.42;100.00
32733;BME280;11867;51.198;11.966;2023-10-08T05:02:23;101098.97;;;13.46;100.00
32733;BME280;11867;51.198;11.966;2023-10-08T05:03:56;101088.72;;;13.62;100.00
32733;BME280;11867;51.198;11.966;2023-10-08T05:05:47;101086.25;;;13.65;100.00
32733;BME280;11867;51.198;11.966;2023-10-08T05:07:29;101079.16;;;13.59;100.00
32733;BME280;11867;51.198;11.966;2023-10-08T05:09:11;101081.03;;;13.69;100.00
32733;BME280;11867;51.198;11.966;2023-10-08T05:10:44;101091.53;;;13.51;100.00
32733;BME280;11867;51.198;11.966;2023-10-08T05:12:22;101099.78;;;13.46;100.00
32733;BME280;11867;51.198;11.966;2023-10-08T05:13:56;101104.63;;;13.60;100.00
32733;BME280;11867;51.198;11.966;2023-10-08T05:15:27;101114.50;;;13.61;100.00
32733;BME280;11867;51.198;11.966;2023-10-08T05:16:59;101107.09;;;13.61;100.00
32733;BME280;11867;51.198;11.966;2023-10-08T05:18:26;101106.84;;;13.58;100.00
32733;BME280;11867;51.198;11.966;2023-10-08T05:20:09;101109.44;;;13.18;100.00
32733;BME280;11867;51.198;11.966;2023-10-08T05:21:52;101112.53;;;13.06;100.00
32733;BME280;11867;51.198;11.966;2023-10-08T05:23:23;101118.75;;;13.27;100.00
32733;BME280;11867;51.198;11.966;2023-10-08T05:25:14;101128.84;;;13.42;100.00
32733;BME280;11867;51.198;11.966;2023-10-08T05:26:57;101129.97;;;13.36;100.00
32733;BME280;11867;51.198;11.966;2023-10-08T05:28:50;101144.75;;;13.40;100.00
32733;BME280;11867;51.198;11.966;2023-10-08T05:30:24;101136.44;;;13.56;100.00
32733;BME280;11867;51.198;11.966;2023-10-08T05:32:03;101147.44;;;13.45;100.00
32733;BME280;11867;51.198;11.966;2023-10-08T05:33:45;101151.25;;;13.55;100.00
32733;BME280;11867;51.198;11.966;2023-10-08T05:35:32;101155.09;;;13.53;100.00
32733;BME280;11867;51.198;11.966;2023-10-08T05:37:11;101159.09;;;13.77;100.00
32733;BME280;11867;51.198;11.966;2023-10-08T05:38:53;101155.50;;;13.81;100.00
32733;BME280;11867;51.198;11.966;2023-10-08T05:40:22;101166.47;;;13.81;100.00
32733;BME280;11867;51.198;11.966;2023-10-08T05:42:04;101178.91;;;13.58;100.00
32733;BME280;11867;51.198;11.966;2023-10-08T05:43:38;101180.28;;;13.56;100.00
32733;BME280;11867;51.198;11.966;2023-10-08T05:45:17;101178.91;;;13.58;100.00
32733;BME280;11867;51.198;11.966;2023-10-08T05:46:56;101188.84;;;13.39;100.00
32733;BME280;11867;51.198;11.966;2023-10-08T05:48:34;101194.88;;;13.30;100.00
32733;BME280;11867;51.198;11.966;2023-10-08T05:50:09;101184.97;;;13.50;100.00
32733;BME280;11867;51.198;11.966;2023-10-08T05:52:00;101183.88;;;13.51;100.00
32733;BME280;11867;51.198;11.966;2023-10-08T05:53:37;101188.81;;;13.54;100.00
32733;BME280;11867;51.198;11.966;2023-10-08T05:55:06;101178.38;;;13.51;100.00
32733;BME280;11867;51.198;11.966;2023-10-08T05:56:46;101174.28;;;13.43;100.00
32733;BME280;11867;51.198;11.966;2023-10-08T05:58:27;101177.59;;;13.40;100.00
32733;BME280;11867;51.198;11.966;2023-10-08T06:00:08;101177.34;;;13.37;100.00
32733;BME280;11867;51.198;11.966;2023-10-08T06:01:50;101190.19;;;13.41;100.00
32733;BME280;11867;51.198;11.966;2023-10-08T06:03:27;101186.91;;;13.39;100.00
32733;BME280;11867;51.198;11.966;2023-10-08T06:05:10;101187.69;;;13.60;100.00
32733;BME280;11867;51.198;11.966;2023-10-08T06:06:42;101195.38;;;13.53;100.00
32733;BME280;11867;51.198;11.966;2023-10-08T06:08:19;101195.41;;;13.43;100.00
32733;BME280;11867;51.198;11.966;2023-10-08T06:10:00;101209.09;;;13.48;100.00
32733;BME280;11867;51.198;11.966;2023-10-08T06:11:24;101209.66;;;13.40;100.00
32733;BME280;11867;51.198;11.966;2023-10-08T06:13:00;101217.63;;;13.36;100.00
32733;BME280;11867;51.198;11.966;2023-10-08T06:14:24;101220.06;;;13.43;100.00
32733;BME280;11867;51.198;11.966;2023-10-08T06:16:04;101228.28;;;13.48;100.00
32733;BME280;11867;51.198;11.966;2023-10-08T06:17:27;101227.47;;;13.42;100.00
32733;BME280;11867;51.198;11.966;2023-10-08T06:19:08;101231.78;;;13.53;100.00
32733;BME280;11867;51.198;11.966;2023-10-08T06:20:35;101238.91;;;13.65;100.00
32733;BME280;11867;51.198;11.966;2023-10-08T06:21:58;101238.28;;;13.78;100.00
32733;BME280;11867;51.198;11.966;2023-10-08T06:23:27;101236.63;;;13.87;100.00
32733;BME280;11867;51.198;11.966;2023-10-08T06:24:50;101241.06;;;13.73;100.00
32733;BME280;11867;51.198;11.966;2023-10-08T06:26:33;101234.16;;;13.81;100.00
32733;BME280;11867;51.198;11.966;2023-10-08T06:27:56;101233.84;;;13.92;100.00
32733;BME280;11867;51.198;11.966;2023-10-08T06:29:19;101228.13;;;13.79;100.00
32733;BME280;11867;51.198;11.966;2023-10-08T06:30:50;101234.78;;;13.72;100.00
32733;BME280;11867;51.198;11.966;2023-10-08T06:32:15;101232.84;;;13.73;100.00
32733;BME280;11867;51.198;11.966;2023-10-08T06:33:39;101226.25;;;13.79;100.00
32733;BME280;11867;51.198;11.966;2023-10-08T06:35:04;101232.81;;;13.83;100.00
32733;BME280;11867;51.198;11.966;2023-10-08T06:36:28;101230.06;;;13.83;100.00
32733;BME280;11867;51.198;11.966;2023-10-08T06:37:52;101236.03;;;13.90;100.00
32733;BME280;11867;51.198;11.966;2023-10-08T06:39:16;101225.56;;;14.03;100.00
32733;BME280;11867;51.198;11.966;2023-10-08T06:40:42;101243.59;;;14.19;100.00
32733;BME280;11867;51.198;11.966;2023-10-08T06:42:04;101255.22;;;13.96;100.00
32733;BME280;11867;51.198;11.966;2023-10-08T06:43:29;101252.72;;;13.99;100.00
32733;BME280;11867;51.198;11.966;2023-10-08T06:44:51;101256.88;;;13.91;100.00
32733;BME280;11867;51.198;11.966;2023-10-08T06:46:19;101260.16;;;13.93;100.00
32733;BME280;11867;51.198;11.966;2023-10-08T06:47:43;101270.00;;;14.00;100.00
32733;BME280;11867;51.198;11.966;2023-10-08T06:49:08;101271.69;;;13.96;100.00
32733;BME280;11867;51.198;11.966;2023-10-08T06:50:35;101273.84;;;14.04;100.00
32733;BME280;11867;51.198;11.966;2023-10-08T06:51:59;101262.06;;;13.93;100.00
32733;BME280;11867;51.198;11.966;2023-10-08T06:53:22;101272.78;;;13.89;100.00
32733;BME280;11867;51.198;11.966;2023-10-08T06:54:45;101284.53;;;14.00;100.00
32733;BME280;11867;51.198;11.966;2023-10-08T06:56:08;101293.56;;;14.01;100.00
32733;BME280;11867;51.198;11.966;2023-10-08T06:57:34;101295.59;;;13.69;100.00
32733;BME280;11867;51.198;11.966;2023-10-08T06:58:59;101295.03;;;13.78;100.00
32733;BME280;11867;51.198;11.966;2023-10-08T07:00:23;101291.66;;;14.01;100.00
32733;BME280;11867;51.198;11.966;2023-10-08T07:02:00;101296.09;;;13.92;100.00
32733;BME280;11867;51.198;11.966;2023-10-08T07:03:23;101301.53;;;13.97;99.96
32733;BME280;11867;51.198;11.966;2023-10-08T07:04:47;101311.16;;;14.00;99.68
32733;BME280;11867;51.198;11.966;2023-10-08T07:06:10;101316.13;;;13.87;100.00
32733;BME280;11867;51.198;11.966;2023-10-08T07:07:40;101326.00;;;13.78;100.00
32733;BME280;11867;51.198;11.966;2023-10-08T07:09:07;101337.81;;;13.68;100.00
32733;BME280;11867;51.198;11.966;2023-10-08T07:10:43;101335.91;;;13.53;100.00
32733;BME280;11867;51.198;11.966;2023-10-08T07:12:08;101338.09;;;13.21;100.00
32733;BME280;11867;51.198;11.966;2023-10-08T07:13:36;101326.59;;;13.24;100.00
32733;BME280;11867;51.198;11.966;2023-10-08T07:14:59;101332.09;;;13.44;100.00
32733;BME280;11867;51.198;11.966;2023-10-08T07:16:23;101340.28;;;13.13;100.00
32733;BME280;11867;51.198;11.966;2023-10-08T07:17:46;101339.72;;;12.91;100.00
32733;BME280;11867;51.198;11.966;2023-10-08T07:19:13;101354.53;;;13.10;100.00
32733;BME280;11867;51.198;11.966;2023-10-08T07:20:43;101348.25;;;13.30;100.00
32733;BME280;11867;51.198;11.966;2023-10-08T07:22:08;101343.31;;;13.27;100.00
32733;BME280;11867;51.198;11.966;2023-10-08T07:23:46;101343.56;;;13.21;100.00
32733;BME280;11867;51.198;11.966;2023-10-08T07:25:21;101339.19;;;13.25;100.00
32733;BME280;11867;51.198;11.966;2023-10-08T07:26:45;101338.69;;;13.38;100.00
32733;BME280;11867;51.198;11.966;2023-10-08T07:28:11;101348.53;;;13.44;100.00